METAR Data
IDs: Format: Raw Decoded Include TAF

Data at: 2045 UTC 22 Sep 2020

K3D2 222035Z AUTO 24004KT 10SM CLR 22/15 A3003 RMK AO2 T02220145
K3D2 222015Z AUTO 29005KT 10SM CLR 22/15 A3004 RMK AO2 T02210145
K3D2 221955Z AUTO 27005KT 10SM CLR 22/15 A3005 RMK AO2 T02210146
K3D2 221935Z AUTO 27004KT 10SM CLR 22/15 A3006 RMK AO2 T02230147
K3D2 221915Z AUTO 28005KT 10SM CLR 22/14 A3006 RMK AO2 T02210144
K3D2 221855Z AUTO 26003KT 10SM CLR 22/14 A3007 RMK AO2 T02190143
K3D2 221835Z AUTO 26004KT 10SM CLR 22/14 A3007 RMK AO2 T02170142
K3D2 221815Z AUTO 27004KT 10SM CLR 21/14 A3008 RMK AO2 T02130138
K3D2 221755Z AUTO 27004KT 10SM CLR 21/14 A3009 RMK AO2 T02090136 10209 20152
K3D2 221735Z AUTO 21004KT 10SM CLR 20/13 A3009 RMK AO2 T02030134
K3D2 221715Z AUTO 27005KT 10SM CLR 20/13 A3010 RMK AO2 T01970131
K3D2 221655Z AUTO 25005KT 10SM CLR 20/13 A3010 RMK AO2 T01950133
K3D2 221635Z AUTO 25006KT 10SM CLR 19/13 A3011 RMK AO2 T01880127
K3D2 221615Z AUTO 26006KT 10SM CLR 19/13 A3011 RMK AO2 T01860126
K3D2 221555Z AUTO 28006KT 10SM CLR 18/12 A3011 RMK AO2 T01820122
K3D2 221535Z AUTO 27006KT 10SM CLR 18/12 A3011 RMK AO2 T01810120
K3D2 221515Z AUTO 26006KT 10SM CLR 18/12 A3012 RMK AO2 T01750117
K3D2 221455Z AUTO 26006KT 10SM CLR 17/12 A3012 RMK AO2 T01710117
K3D2 221435Z AUTO 26007KT 220V280 10SM CLR 16/12 A3012 RMK AO2 T01640115
K3D2 221415Z AUTO 26007KT 10SM CLR 16/12 A3012 RMK AO2 T01600117
K3D2 221355Z AUTO 25009G15KT 10SM CLR 16/12 A3013 RMK AO2 T01550115
K3D2 221335Z AUTO 25007KT 210V270 10SM CLR 15/12 A3013 RMK AO2 T01520116
K3D2 221315Z AUTO 25006KT 10SM CLR 15/12 A3013 RMK AO2 T01520115
K3D2 221255Z AUTO 25008KT 10SM CLR 15/12 A3012 RMK AO2 T01530115
K3D2 221235Z AUTO 25005KT 10SM CLR 15/12 A3012 RMK AO2 T01540115
K3D2 221215Z AUTO 25004KT 10SM CLR 15/11 A3012 RMK AO2 T01520113
K3D2 221155Z AUTO 24005KT 10SM CLR 16/11 A3012 RMK AO2 T01550109 10173 20144
K3D2 221135Z AUTO 24006KT 10SM CLR 16/11 A3012 RMK AO2 T01570107
K3D2 221115Z AUTO 25005KT 10SM CLR 16/10 A3012 RMK AO2 T01600103
K3D2 221055Z AUTO 24005KT 10SM CLR 16/10 A3012 RMK AO2 T01620102
K3D2 221035Z AUTO 24007KT 140V270 10SM CLR 17/10 A3012 RMK AO2 T01650099
K3D2 221015Z AUTO 23005KT 10SM CLR 17/10 A3012 RMK AO2 T01670097
K3D2 220955Z AUTO 23004KT 10SM CLR 17/10 A3013 RMK AO2 T01690096
K3D2 220935Z AUTO 23007KT 10SM CLR 17/10 A3013 RMK AO2 T01690095
K3D2 220915Z AUTO 23004KT 10SM CLR 17/09 A3013 RMK AO2 T01680092
K3D2 220855Z AUTO 22007KT 180V270 10SM CLR 17/09 A3013 RMK AO2 T01700091
K3D2 220835Z AUTO 24007G16KT 190V280 10SM CLR 17/09 A3014 RMK AO2 T01720090
K3D2 220815Z AUTO 23006KT 10SM CLR 17/09 A3014 RMK AO2 T01730087
K3D2 220755Z AUTO 23005KT 10SM CLR 17/09 A3014 RMK AO2 T01730087
K3D2 220735Z AUTO 22006KT 10SM CLR 17/09 A3015 RMK AO2 T01700088
K3D2 220715Z AUTO 22006KT 10SM CLR 17/09 A3016 RMK AO2 T01650088
K3D2 220655Z AUTO 21004KT 10SM CLR 16/09 A3016 RMK AO2 T01600090
K3D2 220635Z AUTO 20004KT 10SM CLR 15/09 A3016 RMK AO2 T01520091
K3D2 220615Z AUTO 20004KT 10SM SCT095 15/09 A3017 RMK AO2 T01490094
K3D2 220555Z AUTO 21003KT 10SM BKN095 14/10 A3017 RMK AO2 T01430097 10155 20137 401950129
K3D2 220535Z AUTO 20004KT 10SM CLR 14/10 A3017 RMK AO2 T01400100
K3D2 220515Z AUTO 20004KT 10SM CLR 14/10 A3017 RMK AO2 T01390104
K3D2 220455Z AUTO 20005KT 10SM BKN110 14/11 A3018 RMK AO2 T01400107
K3D2 220435Z AUTO 19004KT 10SM SCT120 14/11 A3018 RMK AO2 T01410109
K3D2 220415Z AUTO 21004KT 10SM -RA SCT120 14/11 A3019 RMK AO2 T01420111
K3D2 220355Z AUTO 20004KT 10SM -RA BKN110 14/11 A3018 RMK AO2 T01440114
K3D2 220335Z AUTO 21006G14KT 10SM RA SCT050 SCT060 OVC110 15/11 A3018 RMK AO2 T01510106
K3D2 220315Z AUTO 18010G18KT 10SM SCT050 SCT065 SCT075 16/10 A3015 RMK AO2 T01550103
K3D2 220255Z AUTO 20007G16KT 160V220 10SM CLR 16/11 A3017 RMK AO2 T01550105
K3D2 220235Z AUTO 19010G18KT 10SM CLR 15/11 A3017 RMK AO2 T01520105
K3D2 220215Z AUTO 19009G19KT 10SM CLR 15/11 A3018 RMK AO2 T01510106
K3D2 220155Z AUTO 18011G19KT 10SM CLR 15/11 A3017 RMK AO2 T01500110
K3D2 220135Z AUTO 19010G15KT 150V210 10SM CLR 15/11 A3020 RMK AO2 T01480112
K3D2 220115Z AUTO 18009G18KT 150V210 10SM CLR 15/12 A3020 RMK AO2 T01470118
K3D2 220055Z AUTO 18009KT 10SM CLR 15/12 A3021 RMK AO2 T01460120
K3D2 220035Z AUTO 19011G18KT 10SM CLR 15/12 A3021 RMK AO2 T01470120
K3D2 220015Z AUTO 19011G17KT 10SM CLR 15/12 A3021 RMK AO2 T01500118
K3D2 212355Z AUTO 18010G17KT 150V210 10SM CLR 15/12 A3020 RMK AO2 T01500120 10195 20149
K3D2 212335Z AUTO 18010G16KT 10SM CLR 15/12 A3020 RMK AO2 T01490120
K3D2 212315Z AUTO 18011G18KT 10SM CLR 15/12 A3020 RMK AO2 T01500118
K3D2 212255Z AUTO 19012G21KT 10SM CLR 15/12 A3020 RMK AO2 T01530115
K3D2 212235Z AUTO 18011G18KT 10SM CLR 16/11 A3020 RMK AO2 T01580107
K3D2 212215Z AUTO 18009G15KT 140V200 10SM CLR 17/11 A3020 RMK AO2 T01660106
K3D2 212155Z AUTO 18009G18KT 10SM CLR 17/11 A3021 RMK AO2 T01700107
K3D2 212135Z AUTO 18013G17KT 10SM CLR 17/11 A3021 RMK AO2 T01720105
K3D2 212115Z AUTO 18008G23KT 150V210 10SM CLR 18/10 A3021 RMK AO2 T01750095
K3D2 212055Z AUTO 17013G17KT 10SM CLR 18/09 A3021 RMK AO2 T01770091
K3D2 212035Z AUTO 18010G17KT 10SM CLR 18/09 A3021 RMK AO2 T01800092
K3D2 212015Z AUTO 18009G16KT 10SM CLR 18/09 A3022 RMK AO2 T01810093
K3D2 211955Z AUTO 18008G16KT 10SM CLR 19/09 A3023 RMK AO2 T01850093
K3D2 211935Z AUTO 19009G15KT 160V240 10SM CLR 19/10 A3024 RMK AO2 T01900095
K3D2 211915Z AUTO 17010G14KT 10SM CLR 19/09 A3024 RMK AO2 T01910091
K3D2 211855Z AUTO 18010G15KT 10SM CLR 19/09 A3025 RMK AO2 T01920085
K3D2 211835Z AUTO 17009G17KT 10SM CLR 19/08 A3027 RMK AO2 T01930081
K3D2 211815Z AUTO 18009KT 10SM CLR 19/08 A3028 RMK AO2 T01920081
K3D2 211755Z AUTO 18006G16KT 10SM CLR 19/08 A3029 RMK AO2 T01850082 10187 20137
K3D2 211735Z AUTO 19007KT 10SM CLR 19/09 A3029 RMK AO2 T01870090
K3D2 211715Z AUTO 18007KT 150V210 10SM CLR 18/09 A3030 RMK AO2 T01830094
K3D2 211655Z AUTO 18008G16KT 150V210 10SM CLR 18/10 A3030 RMK AO2 T01790103
K3D2 211635Z AUTO 18007KT 10SM CLR 17/11 A3031 RMK AO2 T01700105
K3D2 211615Z AUTO 19008KT 10SM CLR 17/11 A3032 RMK AO2 T01710110
K3D2 211555Z AUTO 19009G14KT 10SM CLR 17/11 A3032 RMK AO2 T01660111
K3D2 211535Z AUTO 19008KT 160V220 10SM CLR 16/11 A3033 RMK AO2 T01630114
K3D2 211515Z AUTO 18007KT 150V210 10SM CLR 17/12 A3033 RMK AO2 T01650115
K3D2 211455Z AUTO 19009G16KT 10SM CLR 16/11 A3034 RMK AO2 T01610113
K3D2 211435Z AUTO 18011G17KT 160V220 10SM CLR 17/12 A3033 RMK AO2 T01650117
K3D2 211415Z AUTO 19009G15KT 150V220 10SM CLR 16/12 A3033 RMK AO2 T01610118
K3D2 211355Z AUTO 19007G16KT 10SM CLR 16/12 A3034 RMK AO2 T01600118
K3D2 211335Z AUTO 19008KT 150V220 10SM CLR 15/12 A3034 RMK AO2 T01510119
K3D2 211315Z AUTO 19008G14KT 10SM CLR 15/12 A3034 RMK AO2 T01470118
K3D2 211255Z AUTO 19007KT 160V220 10SM CLR 14/12 A3034 RMK AO2 T01430116
K3D2 211235Z AUTO 18008KT 10SM CLR 14/11 A3034 RMK AO2 T01390114
K3D2 211215Z AUTO 18006G15KT 10SM CLR 14/11 A3034 RMK AO2 T01370112
K3D2 211155Z AUTO 18007KT 10SM CLR 14/11 A3034 RMK AO2 T01380111 10140 20129
K3D2 211135Z AUTO 18012G15KT 10SM CLR 14/11 A3033 RMK AO2 T01390110
K3D2 211115Z AUTO 18008G14KT 10SM CLR 14/11 A3033 RMK AO2 T01400110
K3D2 211055Z AUTO 18010G15KT 10SM CLR 14/11 A3033 RMK AO2 T01380110
K3D2 211035Z AUTO 18010G16KT 10SM CLR 14/11 A3033 RMK AO2 T01370110
K3D2 211015Z AUTO 18010G15KT 160V220 10SM CLR 14/11 A3033 RMK AO2 T01370110
K3D2 210955Z AUTO 18011G17KT 10SM CLR 14/11 A3033 RMK AO2 T01370111
K3D2 210935Z AUTO 18007G16KT 150V210 10SM CLR 14/11 A3033 RMK AO2 T01370110
K3D2 210915Z AUTO 18010G17KT 10SM CLR 14/11 A3033 RMK AO2 T01370111
K3D2 210855Z AUTO 18009G17KT 10SM CLR 14/11 A3033 RMK AO2 T01380112